sensor_id;sensor_type;location;lat;lon;timestamp;pressure;altitude;pressure_sealevel;temperature;humidity
9063;BME280;4567;42.118;24.746;2022-11-14T00:00:46;100985.69;;;9.68;78.15
9063;BME280;4567;42.118;24.746;2022-11-14T00:03:12;100977.44;;;9.63;76.89
9063;BME280;4567;42.118;24.746;2022-11-14T00:05:40;100978.53;;;9.57;76.26
9063;BME280;4567;42.118;24.746;2022-11-14T00:08:13;100982.31;;;9.50;76.09
9063;BME280;4567;42.118;24.746;2022-11-14T00:10:41;100974.38;;;9.44;76.22
9063;BME280;4567;42.118;24.746;2022-11-14T00:13:07;100970.78;;;9.43;75.99
9063;BME280;4567;42.118;24.746;2022-11-14T00:15:34;100968.03;;;9.33;75.17
9063;BME280;4567;42.118;24.746;2022-11-14T00:18:01;100962.50;;;9.23;74.52
9063;BME280;4567;42.118;24.746;2022-11-14T00:20:28;100969.34;;;9.16;74.93
9063;BME280;4567;42.118;24.746;2022-11-14T00:22:54;100960.81;;;9.07;74.41
9063;BME280;4567;42.118;24.746;2022-11-14T00:25:22;100963.00;;;9.00;74.37
9063;BME280;4567;42.118;24.746;2022-11-14T00:27:49;100965.13;;;8.93;74.86
9063;BME280;4567;42.118;24.746;2022-11-14T00:30:16;100957.19;;;8.92;74.45
9063;BME280;4567;42.118;24.746;2022-11-14T00:32:43;100961.28;;;8.89;73.92
9063;BME280;4567;42.118;24.746;2022-11-14T00:35:10;100951.13;;;8.85;74.32
9063;BME280;4567;42.118;24.746;2022-11-14T00:37:36;100952.47;;;8.82;74.17
9063;BME280;4567;42.118;24.746;2022-11-14T00:40:04;100954.09;;;8.78;74.28
9063;BME280;4567;42.118;24.746;2022-11-14T00:42:32;100945.31;;;8.71;74.22
9063;BME280;4567;42.118;24.746;2022-11-14T00:44:59;100943.06;;;8.63;74.38
9063;BME280;4567;42.118;24.746;2022-11-14T00:47:26;100945.00;;;8.63;74.68
9063;BME280;4567;42.118;24.746;2022-11-14T00:49:52;100934.84;;;8.58;74.66
9063;BME280;4567;42.118;24.746;2022-11-14T00:52:19;100934.00;;;8.58;74.89
9063;BME280;4567;42.118;24.746;2022-11-14T00:54:46;100925.56;;;8.59;74.46
9063;BME280;4567;42.118;24.746;2022-11-14T00:57:12;100927.19;;;8.55;74.36
9063;BME280;4567;42.118;24.746;2022-11-14T00:59:40;100928.53;;;8.53;74.61
9063;BME280;4567;42.118;24.746;2022-11-14T01:02:07;100918.13;;;8.50;74.57
9063;BME280;4567;42.118;24.746;2022-11-14T01:04:34;100916.22;;;8.50;74.81
9063;BME280;4567;42.118;24.746;2022-11-14T01:07:01;100918.13;;;8.50;74.37
9063;BME280;4567;42.118;24.746;2022-11-14T01:09:27;100919.19;;;8.44;74.26
9063;BME280;4567;42.118;24.746;2022-11-14T01:11:54;100923.56;;;8.45;74.46
9063;BME280;4567;42.118;24.746;2022-11-14T01:14:21;100917.00;;;8.46;74.53
9063;BME280;4567;42.118;24.746;2022-11-14T01:16:49;100921.66;;;8.45;74.19
9063;BME280;4567;42.118;24.746;2022-11-14T01:19:15;100910.16;;;8.43;74.07
9063;BME280;4567;42.118;24.746;2022-11-14T01:21:42;100909.63;;;8.46;73.86
9063;BME280;4567;42.118;24.746;2022-11-14T01:24:09;100908.53;;;8.42;74.43
9063;BME280;4567;42.118;24.746;2022-11-14T01:26:35;100909.59;;;8.36;74.98
9063;BME280;4567;42.118;24.746;2022-11-14T01:29:02;100907.91;;;8.35;74.67
9063;BME280;4567;42.118;24.746;2022-11-14T01:31:29;100898.34;;;8.33;74.27
9063;BME280;4567;42.118;24.746;2022-11-14T01:33:57;100904.66;;;8.33;73.56
9063;BME280;4567;42.118;24.746;2022-11-14T01:36:23;100902.69;;;8.29;73.26
9063;BME280;4567;42.118;24.746;2022-11-14T01:38:53;100901.31;;;8.26;73.05
9063;BME280;4567;42.118;24.746;2022-11-14T01:41:20;100907.88;;;8.25;73.13
9063;BME280;4567;42.118;24.746;2022-11-14T01:43:48;100911.41;;;8.26;73.22
9063;BME280;4567;42.118;24.746;2022-11-14T01:46:18;100901.78;;;8.18;73.38
9063;BME280;4567;42.118;24.746;2022-11-14T01:48:49;100895.72;;;8.16;73.53
9063;BME280;4567;42.118;24.746;2022-11-14T01:51:22;100890.28;;;8.16;73.47
9063;BME280;4567;42.118;24.746;2022-11-14T01:53:52;100880.41;;;8.10;74.04
9063;BME280;4567;42.118;24.746;2022-11-14T01:56:23;100898.78;;;8.20;73.74
9063;BME280;4567;42.118;24.746;2022-11-14T01:58:54;100890.84;;;8.18;73.53
9063;BME280;4567;42.118;24.746;2022-11-14T02:01:23;100888.63;;;8.15;73.58
9063;BME280;4567;42.118;24.746;2022-11-14T02:03:52;100895.19;;;8.14;73.51
9063;BME280;4567;42.118;24.746;2022-11-14T02:06:22;100896.50;;;8.07;73.51
9063;BME280;4567;42.118;24.746;2022-11-14T02:08:51;100896.19;;;8.03;73.39
9063;BME280;4567;42.118;24.746;2022-11-14T02:11:18;100888.81;;;7.99;73.67
9063;BME280;4567;42.118;24.746;2022-11-14T02:13:44;100892.06;;;8.01;73.12
9063;BME280;4567;42.118;24.746;2022-11-14T02:16:11;100887.59;;;7.90;73.20
9063;BME280;4567;42.118;24.746;2022-11-14T02:18:38;100889.53;;;7.89;72.30
9063;BME280;4567;42.118;24.746;2022-11-14T02:21:06;100881.88;;;7.86;72.39
9063;BME280;4567;42.118;24.746;2022-11-14T02:23:33;100879.66;;;7.83;72.12
9063;BME280;4567;42.118;24.746;2022-11-14T02:26:00;100871.16;;;7.80;72.67
9063;BME280;4567;42.118;24.746;2022-11-14T02:28:27;100874.69;;;7.80;73.13
9063;BME280;4567;42.118;24.746;2022-11-14T02:30:54;100873.03;;;7.74;73.61
9063;BME280;4567;42.118;24.746;2022-11-14T02:33:20;100871.94;;;7.75;73.58
9063;BME280;4567;42.118;24.746;2022-11-14T02:35:47;100867.56;;;7.74;73.09
9063;BME280;4567;42.118;24.746;2022-11-14T02:38:15;100869.78;;;7.77;73.13
9063;BME280;4567;42.118;24.746;2022-11-14T02:40:42;100867.31;;;7.76;72.97
9063;BME280;4567;42.118;24.746;2022-11-14T02:43:09;100864.88;;;7.79;73.00
9063;BME280;4567;42.118;24.746;2022-11-14T02:45:35;100870.84;;;7.76;72.70
9063;BME280;4567;42.118;24.746;2022-11-14T02:48:02;100868.66;;;7.73;72.83
9063;BME280;4567;42.118;24.746;2022-11-14T02:50:29;100867.31;;;7.76;72.75
9063;BME280;4567;42.118;24.746;2022-11-14T02:52:56;100880.13;;;7.75;72.72
9063;BME280;4567;42.118;24.746;2022-11-14T02:55:24;100871.94;;;7.75;72.54
9063;BME280;4567;42.118;24.746;2022-11-14T02:57:50;100866.47;;;7.75;72.95
9063;BME280;4567;42.118;24.746;2022-11-14T03:00:18;100873.56;;;7.76;73.85
9063;BME280;4567;42.118;24.746;2022-11-14T03:02:44;100868.19;;;7.81;75.01
9063;BME280;4567;42.118;24.746;2022-11-14T03:05:11;100867.84;;;7.78;76.01
9063;BME280;4567;42.118;24.746;2022-11-14T03:07:38;100872.84;;;7.86;76.28
9063;BME280;4567;42.118;24.746;2022-11-14T03:10:05;100867.97;;;7.88;76.33
9063;BME280;4567;42.118;24.746;2022-11-14T03:12:35;100878.03;;;7.87;76.41
9063;BME280;4567;42.118;24.746;2022-11-14T03:15:02;100874.81;;;7.90;77.06
9063;BME280;4567;42.118;24.746;2022-11-14T03:17:30;100874.81;;;7.95;77.18
9063;BME280;4567;42.118;24.746;2022-11-14T03:19:57;100871.00;;;7.96;77.25
9063;BME280;4567;42.118;24.746;2022-11-14T03:22:24;100871.59;;;7.98;77.10
9063;BME280;4567;42.118;24.746;2022-11-14T03:24:51;100875.94;;;7.99;76.98
9063;BME280;4567;42.118;24.746;2022-11-14T03:27:17;100877.91;;;8.04;76.97
9063;BME280;4567;42.118;24.746;2022-11-14T03:29:46;100882.31;;;8.10;76.76
9063;BME280;4567;42.118;24.746;2022-11-14T03:32:13;100881.50;;;8.09;76.70
9063;BME280;4567;42.118;24.746;2022-11-14T03:34:39;100874.38;;;8.08;77.01
9063;BME280;4567;42.118;24.746;2022-11-14T03:37:06;100877.69;;;8.10;77.27
9063;BME280;4567;42.118;24.746;2022-11-14T03:39:33;100877.06;;;8.03;76.64
9063;BME280;4567;42.118;24.746;2022-11-14T03:41:59;100879.53;;;8.05;76.06
9063;BME280;4567;42.118;24.746;2022-11-14T03:44:26;100879.00;;;8.03;75.27
9063;BME280;4567;42.118;24.746;2022-11-14T03:46:54;100877.28;;;7.92;74.06
9063;BME280;4567;42.118;24.746;2022-11-14T03:49:21;100871.97;;;7.80;73.37
9063;BME280;4567;42.118;24.746;2022-11-14T03:51:47;100872.81;;;7.81;72.87
9063;BME280;4567;42.118;24.746;2022-11-14T03:54:15;100877.44;;;7.80;72.42
9063;BME280;4567;42.118;24.746;2022-11-14T03:56:41;100875.25;;;7.77;72.61
9063;BME280;4567;42.118;24.746;2022-11-14T03:59:08;100877.66;;;7.74;72.63
9063;BME280;4567;42.118;24.746;2022-11-14T04:01:34;100884.72;;;7.70;72.59
9063;BME280;4567;42.118;24.746;2022-11-14T04:04:03;100881.13;;;7.64;72.48
9063;BME280;4567;42.118;24.746;2022-11-14T04:06:29;100886.22;;;7.56;72.43
9063;BME280;4567;42.118;24.746;2022-11-14T04:08:56;100879.31;;;7.48;71.33
9063;BME280;4567;42.118;24.746;2022-11-14T04:11:22;100881.47;;;7.41;70.69
9063;BME280;4567;42.118;24.746;2022-11-14T04:13:49;100883.88;;;7.38;70.40
9063;BME280;4567;42.118;24.746;2022-11-14T04:16:16;100879.97;;;7.29;71.07
9063;BME280;4567;42.118;24.746;2022-11-14T04:18:42;100879.03;;;7.18;71.65
9063;BME280;4567;42.118;24.746;2022-11-14T04:21:10;100873.69;;;7.07;72.12
9063;BME280;4567;42.118;24.746;2022-11-14T04:23:37;100886.03;;;7.09;71.75
9063;BME280;4567;42.118;24.746;2022-11-14T04:26:04;100886.19;;;7.03;72.28
9063;BME280;4567;42.118;24.746;2022-11-14T04:28:30;100878.59;;;7.05;71.82
9063;BME280;4567;42.118;24.746;2022-11-14T04:30:57;100879.44;;;7.05;71.75
9063;BME280;4567;42.118;24.746;2022-11-14T04:33:24;100884.81;;;7.00;71.99
9063;BME280;4567;42.118;24.746;2022-11-14T04:35:51;100879.56;;;6.94;72.39
9063;BME280;4567;42.118;24.746;2022-11-14T04:38:19;100886.28;;;6.86;72.49
9063;BME280;4567;42.118;24.746;2022-11-14T04:40:49;100861.38;;;6.78;71.70
9063;BME280;4567;42.118;24.746;2022-11-14T04:43:16;100878.66;;;6.88;71.35
9063;BME280;4567;42.118;24.746;2022-11-14T04:45:43;100884.38;;;6.87;71.43
9063;BME280;4567;42.118;24.746;2022-11-14T04:48:09;100882.97;;;6.84;71.77
9063;BME280;4567;42.118;24.746;2022-11-14T04:50:36;100882.34;;;6.77;71.90
9063;BME280;4567;42.118;24.746;2022-11-14T04:53:03;100881.28;;;6.78;72.01
9063;BME280;4567;42.118;24.746;2022-11-14T04:55:31;100882.19;;;6.84;71.98
9063;BME280;4567;42.118;24.746;2022-11-14T04:57:58;100883.22;;;6.83;72.37
9063;BME280;4567;42.118;24.746;2022-11-14T05:00:25;100889.53;;;6.83;72.57
9063;BME280;4567;42.118;24.746;2022-11-14T05:02:51;100882.44;;;6.82;72.77
9063;BME280;4567;42.118;24.746;2022-11-14T05:05:18;100890.34;;;6.84;73.15
9063;BME280;4567;42.118;24.746;2022-11-14T05:07:45;100888.94;;;6.81;73.54
9063;BME280;4567;42.118;24.746;2022-11-14T05:10:12;100895.41;;;6.75;73.62
9063;BME280;4567;42.118;24.746;2022-11-14T05:12:40;100898.44;;;6.79;73.29
9063;BME280;4567;42.118;24.746;2022-11-14T05:15:07;100902.00;;;6.79;73.01
9063;BME280;4567;42.118;24.746;2022-11-14T05:17:34;100901.16;;;6.79;72.37
9063;BME280;4567;42.118;24.746;2022-11-14T05:20:01;100899.22;;;6.74;72.59
9063;BME280;4567;42.118;24.746;2022-11-14T05:22:27;100907.31;;;6.69;72.73
9063;BME280;4567;42.118;24.746;2022-11-14T05:24:54;100911.94;;;6.69;72.82
9063;BME280;4567;42.118;24.746;2022-11-14T05:27:21;100912.75;;;6.69;72.90
9063;BME280;4567;42.118;24.746;2022-11-14T05:29:49;100905.34;;;6.65;73.08
9063;BME280;4567;42.118;24.746;2022-11-14T05:32:15;100903.13;;;6.62;72.53
9063;BME280;4567;42.118;24.746;2022-11-14T05:34:42;100920.56;;;6.61;72.44
9063;BME280;4567;42.118;24.746;2022-11-14T05:37:09;100915.59;;;6.58;72.32
9063;BME280;4567;42.118;24.746;2022-11-14T05:39:35;100914.72;;;6.52;72.59
9063;BME280;4567;42.118;24.746;2022-11-14T05:42:02;100920.41;;;6.51;72.21
9063;BME280;4567;42.118;24.746;2022-11-14T05:44:29;100922.56;;;6.49;72.19
9063;BME280;4567;42.118;24.746;2022-11-14T05:46:57;100916.88;;;6.50;72.01
9063;BME280;4567;42.118;24.746;2022-11-14T05:49:23;100929.72;;;6.55;72.49
9063;BME280;4567;42.118;24.746;2022-11-14T05:51:50;100929.81;;;6.60;73.03
9063;BME280;4567;42.118;24.746;2022-11-14T05:54:17;100927.66;;;6.62;73.23
9063;BME280;4567;42.118;24.746;2022-11-14T05:56:43;100935.09;;;6.66;73.66
9063;BME280;4567;42.118;24.746;2022-11-14T05:59:10;100938.38;;;6.68;73.98
9063;BME280;4567;42.118;24.746;2022-11-14T06:01:37;100936.72;;;6.67;74.52
9063;BME280;4567;42.118;24.746;2022-11-14T06:04:06;100934.06;;;6.72;74.70
9063;BME280;4567;42.118;24.746;2022-11-14T06:06:32;100933.50;;;6.70;74.98
9063;BME280;4567;42.118;24.746;2022-11-14T06:08:59;100930.25;;;6.73;75.24
9063;BME280;4567;42.118;24.746;2022-11-14T06:11:26;100932.53;;;6.81;75.41
9063;BME280;4567;42.118;24.746;2022-11-14T06:13:52;100924.44;;;6.86;75.41
9063;BME280;4567;42.118;24.746;2022-11-14T06:16:19;100927.53;;;6.95;75.48
9063;BME280;4567;42.118;24.746;2022-11-14T06:18:46;100921.88;;;7.01;75.58
9063;BME280;4567;42.118;24.746;2022-11-14T06:21:16;100925.78;;;7.05;75.99
9063;BME280;4567;42.118;24.746;2022-11-14T06:23:43;100932.72;;;7.18;76.21
9063;BME280;4567;42.118;24.746;2022-11-14T06:26:14;100929.81;;;7.24;76.49
9063;BME280;4567;42.118;24.746;2022-11-14T06:28:45;100920.63;;;7.30;77.16
9063;BME280;4567;42.118;24.746;2022-11-14T06:31:11;100930.22;;;7.38;77.48
9063;BME280;4567;42.118;24.746;2022-11-14T06:33:38;100926.28;;;7.50;77.98
9063;BME280;4567;42.118;24.746;2022-11-14T06:36:06;100934.50;;;7.55;78.46
9063;BME280;4567;42.118;24.746;2022-11-14T06:38:36;100927.00;;;7.67;79.17
9063;BME280;4567;42.118;24.746;2022-11-14T06:41:04;100925.44;;;7.76;79.60
9063;BME280;4567;42.118;24.746;2022-11-14T06:43:32;100927.16;;;7.82;80.62
9063;BME280;4567;42.118;24.746;2022-11-14T06:45:59;100930.41;;;7.84;81.30
9063;BME280;4567;42.118;24.746;2022-11-14T06:48:26;100920.28;;;7.80;81.84
9063;BME280;4567;42.118;24.746;2022-11-14T06:50:54;100923.34;;;7.88;82.18
9063;BME280;4567;42.118;24.746;2022-11-14T06:53:21;100919.84;;;7.93;82.51
9063;BME280;4567;42.118;24.746;2022-11-14T06:55:57;100916.34;;;7.97;82.57
9063;BME280;4567;42.118;24.746;2022-11-14T06:58:27;100918.53;;;8.00;82.54
9063;BME280;4567;42.118;24.746;2022-11-14T07:00:55;100921.75;;;7.92;82.77
9063;BME280;4567;42.118;24.746;2022-11-14T07:03:22;100913.66;;;8.02;82.29
9063;BME280;4567;42.118;24.746;2022-11-14T07:05:49;100913.66;;;8.02;82.04
9063;BME280;4567;42.118;24.746;2022-11-14T07:08:15;100893.78;;;8.07;81.80
9063;BME280;4567;42.118;24.746;2022-11-14T07:10:42;100921.44;;;8.20;81.41
9063;BME280;4567;42.118;24.746;2022-11-14T07:13:10;100912.91;;;8.12;80.83
9063;BME280;4567;42.118;24.746;2022-11-14T07:15:37;100917.91;;;8.20;80.55
9063;BME280;4567;42.118;24.746;2022-11-14T07:18:04;100924.81;;;8.32;80.29
9063;BME280;4567;42.118;24.746;2022-11-14T07:20:30;100926.00;;;8.41;79.84
9063;BME280;4567;42.118;24.746;2022-11-14T07:22:57;100926.03;;;8.46;79.98
9063;BME280;4567;42.118;24.746;2022-11-14T07:25:24;100930.66;;;8.46;79.83
9063;BME280;4567;42.118;24.746;2022-11-14T07:27:50;100932.09;;;8.53;79.11
9063;BME280;4567;42.118;24.746;2022-11-14T07:30:18;100940.06;;;8.60;78.93
9063;BME280;4567;42.118;24.746;2022-11-14T07:32:46;100928.84;;;8.56;78.81
9063;BME280;4567;42.118;24.746;2022-11-14T07:35:12;100928.09;;;8.71;78.35
9063;BME280;4567;42.118;24.746;2022-11-14T07:37:39;100914.78;;;8.84;77.70
9063;BME280;4567;42.118;24.746;2022-11-14T07:40:07;100920.00;;;8.96;77.87
9063;BME280;4567;42.118;24.746;2022-11-14T07:42:33;100917.59;;;9.04;77.43
9063;BME280;4567;42.118;24.746;2022-11-14T07:45:00;100930.25;;;9.20;77.19
9063;BME280;4567;42.118;24.746;2022-11-14T07:47:28;100916.03;;;9.28;76.95
9063;BME280;4567;42.118;24.746;2022-11-14T07:49:55;100911.41;;;9.34;76.28
9063;BME280;4567;42.118;24.746;2022-11-14T07:52:21;100914.09;;;9.24;76.83
9063;BME280;4567;42.118;24.746;2022-11-14T07:54:48;100920.66;;;9.18;77.52
9063;BME280;4567;42.118;24.746;2022-11-14T07:57:15;100914.69;;;9.26;78.03
9063;BME280;4567;42.118;24.746;2022-11-14T07:59:41;100911.41;;;9.34;78.00
9063;BME280;4567;42.118;24.746;2022-11-14T08:02:14;100903.22;;;9.44;77.84
9063;BME280;4567;42.118;24.746;2022-11-14T08:04:42;100897.47;;;9.55;77.80
9063;BME280;4567;42.118;24.746;2022-11-14T08:07:08;100909.03;;;9.73;77.33
9063;BME280;4567;42.118;24.746;2022-11-14T08:09:35;100909.28;;;9.81;77.21
9063;BME280;4567;42.118;24.746;2022-11-14T08:12:02;100908.47;;;9.86;76.83
9063;BME280;4567;42.118;24.746;2022-11-14T08:14:29;100900.00;;;10.02;76.25
9063;BME280;4567;42.118;24.746;2022-11-14T08:16:55;100909.88;;;10.18;75.86
9063;BME280;4567;42.118;24.746;2022-11-14T08:19:22;100903.56;;;10.23;75.22
9063;BME280;4567;42.118;24.746;2022-11-14T08:21:50;100902.44;;;10.39;75.06
9063;BME280;4567;42.118;24.746;2022-11-14T08:24:17;100895.31;;;10.48;74.27
9063;BME280;4567;42.118;24.746;2022-11-14T08:26:43;100894.72;;;10.61;73.41
9063;BME280;4567;42.118;24.746;2022-11-14T08:29:10;100881.53;;;10.63;72.64
9063;BME280;4567;42.118;24.746;2022-11-14T08:31:37;100901.50;;;10.83;71.83
9063;BME280;4567;42.118;24.746;2022-11-14T08:34:04;100902.56;;;10.92;72.12
9063;BME280;4567;42.118;24.746;2022-11-14T08:36:34;100913.22;;;11.09;71.82
9063;BME280;4567;42.118;24.746;2022-11-14T08:39:02;100899.66;;;11.27;70.46
9063;BME280;4567;42.118;24.746;2022-11-14T08:41:28;100904.53;;;11.40;70.10
9063;BME280;4567;42.118;24.746;2022-11-14T08:43:56;100893.72;;;11.54;68.96
9063;BME280;4567;42.118;24.746;2022-11-14T08:46:23;100896.97;;;11.66;67.63
9063;BME280;4567;42.118;24.746;2022-11-14T08:48:50;100889.19;;;11.78;66.77
9063;BME280;4567;42.118;24.746;2022-11-14T08:51:16;100891.75;;;11.69;66.85
9063;BME280;4567;42.118;24.746;2022-11-14T08:53:43;100891.38;;;11.81;66.38
9063;BME280;4567;42.118;24.746;2022-11-14T08:56:11;100880.34;;;11.91;64.61
9063;BME280;4567;42.118;24.746;2022-11-14T08:58:38;100884.16;;;11.90;65.21
9063;BME280;4567;42.118;24.746;2022-11-14T09:01:05;100880.84;;;11.93;65.20
9063;BME280;4567;42.118;24.746;2022-11-14T09:03:33;100886.09;;;11.89;65.52
9063;BME280;4567;42.118;24.746;2022-11-14T09:06:00;100883.31;;;11.94;65.05
9063;BME280;4567;42.118;24.746;2022-11-14T09:08:27;100876.56;;;12.10;65.13
9063;BME280;4567;42.118;24.746;2022-11-14T09:10:54;100874.75;;;12.29;64.61
9063;BME280;4567;42.118;24.746;2022-11-14T09:13:22;100883.13;;;12.43;64.63
9063;BME280;4567;42.118;24.746;2022-11-14T09:15:49;100871.97;;;12.58;64.04
9063;BME280;4567;42.118;24.746;2022-11-14T09:18:16;100867.06;;;12.78;62.67
9063;BME280;4567;42.118;24.746;2022-11-14T09:20:43;100868.00;;;12.92;62.23
9063;BME280;4567;42.118;24.746;2022-11-14T09:23:09;100867.09;;;12.97;61.58
9063;BME280;4567;42.118;24.746;2022-11-14T09:25:36;100864.19;;;13.12;61.01
9063;BME280;4567;42.118;24.746;2022-11-14T09:28:04;100861.34;;;13.17;61.02
9063;BME280;4567;42.118;24.746;2022-11-14T09:30:33;100851.53;;;13.11;60.87
9063;BME280;4567;42.118;24.746;2022-11-14T09:33:00;100852.59;;;13.33;60.51
9063;BME280;4567;42.118;24.746;2022-11-14T09:35:28;100846.31;;;13.46;59.95
9063;BME280;4567;42.118;24.746;2022-11-14T09:37:59;100848.66;;;13.58;59.39
9063;BME280;4567;42.118;24.746;2022-11-14T09:40:26;100831.34;;;13.71;58.89
9063;BME280;4567;42.118;24.746;2022-11-14T09:43:09;100836.72;;;13.81;58.96
9063;BME280;4567;42.118;24.746;2022-11-14T09:45:46;100827.31;;;13.82;59.10
9063;BME280;4567;42.118;24.746;2022-11-14T09:48:17;100818.47;;;13.98;58.31
9063;BME280;4567;42.118;24.746;2022-11-14T09:50:48;100820.84;;;14.05;58.08
9063;BME280;4567;42.118;24.746;2022-11-14T09:53:21;100814.22;;;14.06;57.56
9063;BME280;4567;42.118;24.746;2022-11-14T09:55:51;100810.91;;;14.23;57.42
9063;BME280;4567;42.118;24.746;2022-11-14T09:58:19;100808.06;;;14.41;57.13
9063;BME280;4567;42.118;24.746;2022-11-14T10:00:50;100796.00;;;14.51;57.10
9063;BME280;4567;42.118;24.746;2022-11-14T10:03:22;100798.75;;;14.64;55.81
9063;BME280;4567;42.118;24.746;2022-11-14T10:06:05;100790.28;;;14.74;56.30
9063;BME280;4567;42.118;24.746;2022-11-14T10:08:54;100798.84;;;14.86;56.19
9063;BME280;4567;42.118;24.746;2022-11-14T10:11:30;100791.47;;;14.95;56.06
9063;BME280;4567;42.118;24.746;2022-11-14T10:14:29;100788.22;;;14.93;56.23
9063;BME280;4567;42.118;24.746;2022-11-14T10:17:12;100779.47;;;15.13;56.41
9063;BME280;4567;42.118;24.746;2022-11-14T10:19:47;100759.31;;;15.13;56.35
9063;BME280;4567;42.118;24.746;2022-11-14T10:22:25;100772.00;;;15.49;55.43
9063;BME280;4567;42.118;24.746;2022-11-14T10:25:17;100780.69;;;15.56;56.80
9063;BME280;4567;42.118;24.746;2022-11-14T10:27:55;100767.72;;;15.65;56.39
9063;BME280;4567;42.118;24.746;2022-11-14T10:30:29;100765.59;;;15.84;56.05
9063;BME280;4567;42.118;24.746;2022-11-14T10:33:21;100758.16;;;15.93;54.88
9063;BME280;4567;42.118;24.746;2022-11-14T10:35:56;100754.44;;;15.98;54.82
9063;BME280;4567;42.118;24.746;2022-11-14T10:38:31;100757.22;;;16.06;54.63
9063;BME280;4567;42.118;24.746;2022-11-14T10:41:01;100750.31;;;16.17;54.83
9063;BME280;4567;42.118;24.746;2022-11-14T10:43:35;100742.47;;;16.11;54.31
9063;BME280;4567;42.118;24.746;2022-11-14T10:46:10;100753.28;;;16.29;54.28
9063;BME280;4567;42.118;24.746;2022-11-14T10:48:41;100745.50;;;16.31;54.08
9063;BME280;4567;42.118;24.746;2022-11-14T10:51:17;100744.97;;;16.29;53.85
9063;BME280;4567;42.118;24.746;2022-11-14T10:53:50;100732.81;;;16.39;53.84
9063;BME280;4567;42.118;24.746;2022-11-14T10:56:19;100734.06;;;16.33;53.90
9063;BME280;4567;42.118;24.746;2022-11-14T10:58:46;100735.91;;;16.37;53.82
9063;BME280;4567;42.118;24.746;2022-11-14T11:01:35;100733.34;;;16.49;53.48
9063;BME280;4567;42.118;24.746;2022-11-14T11:04:18;100734.69;;;16.60;53.19
9063;BME280;4567;42.118;24.746;2022-11-14T11:06:48;100726.56;;;16.64;53.10
9063;BME280;4567;42.118;24.746;2022-11-14T11:09:17;100724.28;;;16.74;53.03
9063;BME280;4567;42.118;24.746;2022-11-14T11:12:02;100721.06;;;16.89;52.78
9063;BME280;4567;42.118;24.746;2022-11-14T11:14:31;100719.75;;;16.87;52.67
9063;BME280;4567;42.118;24.746;2022-11-14T11:17:19;100710.97;;;16.93;52.60
9063;BME280;4567;42.118;24.746;2022-11-14T11:19:48;100707.56;;;17.13;52.09
9063;BME280;4567;42.118;24.746;2022-11-14T11:22:29;100694.34;;;17.19;51.80
9063;BME280;4567;42.118;24.746;2022-11-14T11:25:00;100694.34;;;17.10;51.90
9063;BME280;4567;42.118;24.746;2022-11-14T11:27:28;100675.44;;;17.12;51.34
9063;BME280;4567;42.118;24.746;2022-11-14T11:30:05;100688.81;;;17.27;51.57
9063;BME280;4567;42.118;24.746;2022-11-14T11:32:33;100680.19;;;17.20;51.61
9063;BME280;4567;42.118;24.746;2022-11-14T11:35:02;100674.97;;;17.27;51.43
9063;BME280;4567;42.118;24.746;2022-11-14T11:37:32;100678.69;;;17.31;51.45
9063;BME280;4567;42.118;24.746;2022-11-14T11:40:03;100671.22;;;17.40;51.11
9063;BME280;4567;42.118;24.746;2022-11-14T11:42:35;100676.56;;;17.37;51.93
9063;BME280;4567;42.118;24.746;2022-11-14T11:45:06;100667.78;;;17.43;51.39
9063;BME280;4567;42.118;24.746;2022-11-14T11:47:39;100667.59;;;17.48;51.34
9063;BME280;4567;42.118;24.746;2022-11-14T11:50:14;100665.81;;;17.52;51.11
9063;BME280;4567;42.118;24.746;2022-11-14T11:52:46;100662.22;;;17.52;51.08
9063;BME280;4567;42.118;24.746;2022-11-14T11:55:17;100656.66;;;17.60;50.54
9063;BME280;4567;42.118;24.746;2022-11-14T11:57:47;100664.44;;;17.75;50.36
9063;BME280;4567;42.118;24.746;2022-11-14T12:00:19;100661.13;;;17.90;50.06
9063;BME280;4567;42.118;24.746;2022-11-14T12:02:48;100657.97;;;18.00;49.94
9063;BME280;4567;42.118;24.746;2022-11-14T12:05:23;100658.94;;;18.04;49.91
9063;BME280;4567;42.118;24.746;2022-11-14T12:07:57;100649.22;;;17.90;50.12
9063;BME280;4567;42.118;24.746;2022-11-14T12:10:30;100648.75;;;17.79;50.11
9063;BME280;4567;42.118;24.746;2022-11-14T12:16:17;100648.34;;;17.98;50.41
9063;BME280;4567;42.118;24.746;2022-11-14T12:19:06;100646.19;;;17.74;50.81
9063;BME280;4567;42.118;24.746;2022-11-14T12:22:04;100644.81;;;17.89;50.90
9063;BME280;4567;42.118;24.746;2022-11-14T12:25:17;100639.91;;;17.94;50.34
9063;BME280;4567;42.118;24.746;2022-11-14T12:28:01;100646.88;;;18.00;50.13
9063;BME280;4567;42.118;24.746;2022-11-14T12:30:31;100630.72;;;18.02;50.28
9063;BME280;4567;42.118;24.746;2022-11-14T12:33:01;100640.44;;;18.17;50.22
9063;BME280;4567;42.118;24.746;2022-11-14T12:35:32;100635.69;;;18.17;50.04
9063;BME280;4567;42.118;24.746;2022-11-14T12:38:04;100636.84;;;18.17;50.07
9063;BME280;4567;42.118;24.746;2022-11-14T12:40:33;100632.19;;;18.29;49.59
9063;BME280;4567;42.118;24.746;2022-11-14T12:43:01;100621.69;;;18.43;49.29
9063;BME280;4567;42.118;24.746;2022-11-14T12:45:57;100613.69;;;18.42;48.98
9063;BME280;4567;42.118;24.746;2022-11-14T12:48:33;100627.66;;;18.25;49.63
9063;BME280;4567;42.118;24.746;2022-11-14T12:51:00;100616.22;;;18.26;50.01
9063;BME280;4567;42.118;24.746;2022-11-14T12:53:53;100619.81;;;18.27;49.92
9063;BME280;4567;42.118;24.746;2022-11-14T12:56:48;100621.81;;;18.17;49.92
9063;BME280;4567;42.118;24.746;2022-11-14T12:59:24;100621.44;;;18.28;50.02
9063;BME280;4567;42.118;24.746;2022-11-14T13:02:07;100615.19;;;18.39;50.04
9063;BME280;4567;42.118;24.746;2022-11-14T13:04:48;100623.03;;;18.37;50.03
9063;BME280;4567;42.118;24.746;2022-11-14T13:07:27;100620.59;;;18.36;50.08
9063;BME280;4567;42.118;24.746;2022-11-14T13:10:12;100613.09;;;18.36;50.25
9063;BME280;4567;42.118;24.746;2022-11-14T13:12:41;100616.53;;;18.25;50.45
9063;BME280;4567;42.118;24.746;2022-11-14T13:15:27;100611.50;;;18.27;50.39
9063;BME280;4567;42.118;24.746;2022-11-14T13:18:17;100607.53;;;18.36;50.23
9063;BME280;4567;42.118;24.746;2022-11-14T13:21:03;100598.56;;;18.31;50.31
9063;BME280;4567;42.118;24.746;2022-11-14T13:23:56;100601.34;;;18.31;50.31